sensor_id;sensor_type;location;lat;lon;timestamp;P1;durP1;ratioP1;P2;durP2;ratioP2
37855;SDS011;23694;43.274;26.924;2024-03-07T00:02:20;31.17;;;19.40;;
37855;SDS011;23694;43.274;26.924;2024-03-07T00:04:46;33.63;;;21.60;;
37855;SDS011;23694;43.274;26.924;2024-03-07T00:07:12;34.40;;;22.17;;
37855;SDS011;23694;43.274;26.924;2024-03-07T00:09:38;33.30;;;22.33;;
37855;SDS011;23694;43.274;26.924;2024-03-07T00:12:05;32.47;;;22.50;;
37855;SDS011;23694;43.274;26.924;2024-03-07T00:14:32;32.33;;;21.63;;
37855;SDS011;23694;43.274;26.924;2024-03-07T00:17:01;30.93;;;19.00;;
37855;SDS011;23694;43.274;26.924;2024-03-07T00:19:28;31.40;;;17.40;;
37855;SDS011;23694;43.274;26.924;2024-03-07T00:21:55;26.73;;;18.70;;
37855;SDS011;23694;43.274;26.924;2024-03-07T00:24:22;26.57;;;17.67;;
37855;SDS011;23694;43.274;26.924;2024-03-07T00:26:49;23.20;;;17.10;;
37855;SDS011;23694;43.274;26.924;2024-03-07T00:29:18;24.07;;;16.67;;
37855;SDS011;23694;43.274;26.924;2024-03-07T00:31:45;26.23;;;16.90;;
37855;SDS011;23694;43.274;26.924;2024-03-07T00:34:12;23.23;;;17.30;;
37855;SDS011;23694;43.274;26.924;2024-03-07T00:36:40;25.83;;;15.87;;
37855;SDS011;23694;43.274;26.924;2024-03-07T00:39:06;27.50;;;15.80;;
37855;SDS011;23694;43.274;26.924;2024-03-07T00:41:40;25.27;;;15.87;;
37855;SDS011;23694;43.274;26.924;2024-03-07T00:44:08;23.87;;;16.13;;
37855;SDS011;23694;43.274;26.924;2024-03-07T00:46:36;27.83;;;16.47;;
37855;SDS011;23694;43.274;26.924;2024-03-07T00:49:02;24.33;;;16.20;;
37855;SDS011;23694;43.274;26.924;2024-03-07T00:51:29;25.57;;;16.07;;
37855;SDS011;23694;43.274;26.924;2024-03-07T00:53:55;27.67;;;16.83;;
37855;SDS011;23694;43.274;26.924;2024-03-07T00:56:22;29.57;;;16.30;;
37855;SDS011;23694;43.274;26.924;2024-03-07T00:58:49;26.10;;;16.70;;
37855;SDS011;23694;43.274;26.924;2024-03-07T01:01:16;23.67;;;16.53;;
37855;SDS011;23694;43.274;26.924;2024-03-07T01:03:44;26.03;;;16.60;;
37855;SDS011;23694;43.274;26.924;2024-03-07T01:06:10;26.63;;;17.40;;
37855;SDS011;23694;43.274;26.924;2024-03-07T01:08:37;27.63;;;17.20;;
37855;SDS011;23694;43.274;26.924;2024-03-07T01:11:04;33.07;;;17.87;;
37855;SDS011;23694;43.274;26.924;2024-03-07T01:13:39;27.47;;;17.13;;
37855;SDS011;23694;43.274;26.924;2024-03-07T01:16:05;26.43;;;17.13;;
37855;SDS011;23694;43.274;26.924;2024-03-07T01:18:32;25.23;;;16.23;;
37855;SDS011;23694;43.274;26.924;2024-03-07T01:21:01;26.40;;;16.60;;
37855;SDS011;23694;43.274;26.924;2024-03-07T01:23:29;27.87;;;17.90;;
37855;SDS011;23694;43.274;26.924;2024-03-07T01:25:56;30.87;;;17.00;;
37855;SDS011;23694;43.274;26.924;2024-03-07T01:28:25;26.20;;;16.40;;
37855;SDS011;23694;43.274;26.924;2024-03-07T01:30:55;26.20;;;16.37;;
37855;SDS011;23694;43.274;26.924;2024-03-07T01:33:23;28.17;;;17.03;;
37855;SDS011;23694;43.274;26.924;2024-03-07T01:35:49;26.90;;;17.23;;
37855;SDS011;23694;43.274;26.924;2024-03-07T01:38:16;27.23;;;16.33;;
37855;SDS011;23694;43.274;26.924;2024-03-07T01:40:42;25.33;;;17.07;;
37855;SDS011;23694;43.274;26.924;2024-03-07T01:43:09;24.20;;;16.47;;
37855;SDS011;23694;43.274;26.924;2024-03-07T01:45:39;26.60;;;17.33;;
37855;SDS011;23694;43.274;26.924;2024-03-07T01:48:05;25.40;;;17.10;;
37855;SDS011;23694;43.274;26.924;2024-03-07T01:50:34;28.40;;;18.43;;
37855;SDS011;23694;43.274;26.924;2024-03-07T01:53:04;27.27;;;16.70;;
37855;SDS011;23694;43.274;26.924;2024-03-07T01:55:32;26.20;;;17.33;;
37855;SDS011;23694;43.274;26.924;2024-03-07T01:57:59;27.20;;;17.57;;
37855;SDS011;23694;43.274;26.924;2024-03-07T02:00:29;27.33;;;16.03;;
37855;SDS011;23694;43.274;26.924;2024-03-07T02:02:56;26.40;;;16.63;;
37855;SDS011;23694;43.274;26.924;2024-03-07T02:05:24;32.60;;;19.93;;
37855;SDS011;23694;43.274;26.924;2024-03-07T02:07:50;33.90;;;19.43;;
37855;SDS011;23694;43.274;26.924;2024-03-07T02:10:17;33.00;;;19.80;;
37855;SDS011;23694;43.274;26.924;2024-03-07T02:12:43;31.90;;;19.67;;
37855;SDS011;23694;43.274;26.924;2024-03-07T02:15:10;34.33;;;20.37;;
37855;SDS011;23694;43.274;26.924;2024-03-07T02:17:39;34.17;;;20.77;;
37855;SDS011;23694;43.274;26.924;2024-03-07T02:20:06;34.27;;;20.77;;
37855;SDS011;23694;43.274;26.924;2024-03-07T02:22:34;34.53;;;21.43;;
37855;SDS011;23694;43.274;26.924;2024-03-07T02:25:01;34.87;;;20.83;;
37855;SDS011;23694;43.274;26.924;2024-03-07T02:27:27;32.37;;;19.97;;
37855;SDS011;23694;43.274;26.924;2024-03-07T02:29:53;33.47;;;19.13;;
37855;SDS011;23694;43.274;26.924;2024-03-07T02:32:19;33.33;;;19.50;;
37855;SDS011;23694;43.274;26.924;2024-03-07T02:34:45;29.37;;;18.73;;
37855;SDS011;23694;43.274;26.924;2024-03-07T02:37:12;30.00;;;18.97;;
37855;SDS011;23694;43.274;26.924;2024-03-07T02:39:39;35.07;;;25.47;;
37855;SDS011;23694;43.274;26.924;2024-03-07T02:42:05;39.47;;;30.00;;
37855;SDS011;23694;43.274;26.924;2024-03-07T02:44:32;40.63;;;28.07;;
37855;SDS011;23694;43.274;26.924;2024-03-07T02:46:58;39.87;;;26.73;;
37855;SDS011;23694;43.274;26.924;2024-03-07T02:49:24;34.00;;;24.30;;
37855;SDS011;23694;43.274;26.924;2024-03-07T02:51:50;30.43;;;21.50;;
37855;SDS011;23694;43.274;26.924;2024-03-07T02:54:16;31.20;;;21.33;;
37855;SDS011;23694;43.274;26.924;2024-03-07T02:56:44;31.47;;;20.70;;
37855;SDS011;23694;43.274;26.924;2024-03-07T02:59:10;31.60;;;20.37;;
37855;SDS011;23694;43.274;26.924;2024-03-07T03:01:37;33.47;;;21.30;;
37855;SDS011;23694;43.274;26.924;2024-03-07T03:04:03;34.53;;;19.83;;
37855;SDS011;23694;43.274;26.924;2024-03-07T03:06:29;31.00;;;19.57;;
37855;SDS011;23694;43.274;26.924;2024-03-07T03:08:55;30.37;;;19.13;;
37855;SDS011;23694;43.274;26.924;2024-03-07T03:11:21;26.80;;;18.00;;
37855;SDS011;23694;43.274;26.924;2024-03-07T03:13:47;32.93;;;19.63;;
37855;SDS011;23694;43.274;26.924;2024-03-07T03:16:14;31.73;;;20.43;;
37855;SDS011;23694;43.274;26.924;2024-03-07T03:18:41;32.47;;;19.67;;
37855;SDS011;23694;43.274;26.924;2024-03-07T03:21:07;28.33;;;18.97;;
37855;SDS011;23694;43.274;26.924;2024-03-07T03:23:33;32.37;;;20.10;;
37855;SDS011;23694;43.274;26.924;2024-03-07T03:26:01;29.20;;;19.77;;
37855;SDS011;23694;43.274;26.924;2024-03-07T03:28:28;31.87;;;19.57;;
37855;SDS011;23694;43.274;26.924;2024-03-07T03:30:54;32.57;;;20.97;;
37855;SDS011;23694;43.274;26.924;2024-03-07T03:33:20;31.30;;;19.63;;
37855;SDS011;23694;43.274;26.924;2024-03-07T03:35:47;33.27;;;20.93;;
37855;SDS011;23694;43.274;26.924;2024-03-07T03:38:13;33.57;;;19.03;;
37855;SDS011;23694;43.274;26.924;2024-03-07T03:40:39;33.97;;;21.47;;
37855;SDS011;23694;43.274;26.924;2024-03-07T03:43:05;31.23;;;20.10;;
37855;SDS011;23694;43.274;26.924;2024-03-07T03:45:31;34.20;;;19.93;;
37855;SDS011;23694;43.274;26.924;2024-03-07T03:47:59;32.73;;;20.43;;
37855;SDS011;23694;43.274;26.924;2024-03-07T03:50:25;35.07;;;21.20;;
37855;SDS011;23694;43.274;26.924;2024-03-07T03:52:52;92.00;;;66.47;;
37855;SDS011;23694;43.274;26.924;2024-03-07T03:55:18;41.90;;;29.00;;
37855;SDS011;23694;43.274;26.924;2024-03-07T03:57:45;38.27;;;25.13;;
37855;SDS011;23694;43.274;26.924;2024-03-07T04:00:14;36.10;;;24.77;;
37855;SDS011;23694;43.274;26.924;2024-03-07T04:02:43;35.53;;;22.03;;
37855;SDS011;23694;43.274;26.924;2024-03-07T04:05:13;34.40;;;21.63;;
37855;SDS011;23694;43.274;26.924;2024-03-07T04:07:41;37.93;;;27.17;;
37855;SDS011;23694;43.274;26.924;2024-03-07T04:10:09;105.27;;;77.23;;
37855;SDS011;23694;43.274;26.924;2024-03-07T04:12:37;56.63;;;39.50;;
37855;SDS011;23694;43.274;26.924;2024-03-07T04:15:07;90.63;;;68.90;;
37855;SDS011;23694;43.274;26.924;2024-03-07T04:17:36;49.20;;;30.30;;
37855;SDS011;23694;43.274;26.924;2024-03-07T04:20:03;79.90;;;54.83;;
37855;SDS011;23694;43.274;26.924;2024-03-07T04:22:36;43.43;;;28.10;;
37855;SDS011;23694;43.274;26.924;2024-03-07T04:25:06;58.27;;;39.47;;
37855;SDS011;23694;43.274;26.924;2024-03-07T04:27:34;53.80;;;37.00;;
37855;SDS011;23694;43.274;26.924;2024-03-07T04:30:03;49.27;;;32.70;;
37855;SDS011;23694;43.274;26.924;2024-03-07T04:32:30;37.97;;;25.07;;
37855;SDS011;23694;43.274;26.924;2024-03-07T04:34:57;44.70;;;28.23;;
37855;SDS011;23694;43.274;26.924;2024-03-07T04:37:23;34.80;;;22.50;;
37855;SDS011;23694;43.274;26.924;2024-03-07T04:39:49;37.17;;;22.80;;
37855;SDS011;23694;43.274;26.924;2024-03-07T04:42:15;43.07;;;23.23;;
37855;SDS011;23694;43.274;26.924;2024-03-07T04:44:41;37.07;;;23.47;;
37855;SDS011;23694;43.274;26.924;2024-03-07T04:47:07;35.90;;;23.30;;
37855;SDS011;23694;43.274;26.924;2024-03-07T04:49:33;37.70;;;23.70;;
37855;SDS011;23694;43.274;26.924;2024-03-07T04:52:01;33.27;;;22.80;;
37855;SDS011;23694;43.274;26.924;2024-03-07T04:54:29;35.13;;;23.83;;
37855;SDS011;23694;43.274;26.924;2024-03-07T04:56:57;34.73;;;24.23;;
37855;SDS011;23694;43.274;26.924;2024-03-07T04:59:23;34.47;;;23.57;;
37855;SDS011;23694;43.274;26.924;2024-03-07T05:01:49;34.97;;;23.47;;
37855;SDS011;23694;43.274;26.924;2024-03-07T05:04:16;40.93;;;25.23;;
37855;SDS011;23694;43.274;26.924;2024-03-07T05:06:43;39.33;;;24.03;;
37855;SDS011;23694;43.274;26.924;2024-03-07T05:09:09;33.70;;;22.70;;
37855;SDS011;23694;43.274;26.924;2024-03-07T05:11:47;38.50;;;24.40;;
37855;SDS011;23694;43.274;26.924;2024-03-07T05:14:13;42.93;;;25.20;;
37855;SDS011;23694;43.274;26.924;2024-03-07T05:16:39;44.00;;;26.80;;
37855;SDS011;23694;43.274;26.924;2024-03-07T05:19:05;41.73;;;26.13;;
37855;SDS011;23694;43.274;26.924;2024-03-07T05:21:33;41.67;;;25.93;;
37855;SDS011;23694;43.274;26.924;2024-03-07T05:24:03;47.87;;;28.73;;
37855;SDS011;23694;43.274;26.924;2024-03-07T05:26:34;50.07;;;29.93;;
37855;SDS011;23694;43.274;26.924;2024-03-07T05:31:34;46.63;;;27.13;;
37855;SDS011;23694;43.274;26.924;2024-03-07T05:34:01;51.00;;;26.50;;
37855;SDS011;23694;43.274;26.924;2024-03-07T05:36:35;47.30;;;27.90;;
37855;SDS011;23694;43.274;26.924;2024-03-07T05:39:02;51.23;;;29.63;;
37855;SDS011;23694;43.274;26.924;2024-03-07T05:41:34;52.87;;;31.07;;
37855;SDS011;23694;43.274;26.924;2024-03-07T05:44:00;75.47;;;42.47;;
37855;SDS011;23694;43.274;26.924;2024-03-07T05:46:26;97.23;;;65.20;;
37855;SDS011;23694;43.274;26.924;2024-03-07T05:48:53;70.33;;;38.87;;
37855;SDS011;23694;43.274;26.924;2024-03-07T05:51:22;65.73;;;37.67;;
37855;SDS011;23694;43.274;26.924;2024-03-07T05:53:49;70.53;;;40.43;;
37855;SDS011;23694;43.274;26.924;2024-03-07T05:56:15;83.87;;;47.17;;
37855;SDS011;23694;43.274;26.924;2024-03-07T05:58:42;53.30;;;32.67;;
37855;SDS011;23694;43.274;26.924;2024-03-07T06:01:08;48.10;;;28.23;;
37855;SDS011;23694;43.274;26.924;2024-03-07T06:03:34;50.97;;;28.83;;
37855;SDS011;23694;43.274;26.924;2024-03-07T06:06:01;48.30;;;28.53;;
37855;SDS011;23694;43.274;26.924;2024-03-07T06:08:27;46.83;;;27.77;;
37855;SDS011;23694;43.274;26.924;2024-03-07T06:10:53;48.50;;;26.43;;
37855;SDS011;23694;43.274;26.924;2024-03-07T06:13:19;47.43;;;26.60;;
37855;SDS011;23694;43.274;26.924;2024-03-07T06:15:46;45.30;;;26.30;;
37855;SDS011;23694;43.274;26.924;2024-03-07T06:18:13;40.33;;;25.50;;
37855;SDS011;23694;43.274;26.924;2024-03-07T06:20:40;43.70;;;26.90;;
37855;SDS011;23694;43.274;26.924;2024-03-07T06:23:07;51.90;;;27.50;;
37855;SDS011;23694;43.274;26.924;2024-03-07T06:25:34;39.63;;;26.03;;
37855;SDS011;23694;43.274;26.924;2024-03-07T06:28:03;45.37;;;27.87;;
37855;SDS011;23694;43.274;26.924;2024-03-07T06:30:40;48.50;;;27.40;;
37855;SDS011;23694;43.274;26.924;2024-03-07T06:33:07;53.33;;;29.67;;
37855;SDS011;23694;43.274;26.924;2024-03-07T06:35:33;50.20;;;29.23;;
37855;SDS011;23694;43.274;26.924;2024-03-07T06:38:05;44.37;;;27.03;;
37855;SDS011;23694;43.274;26.924;2024-03-07T06:40:34;42.88;;;27.90;;
37855;SDS011;23694;43.274;26.924;2024-03-07T06:43:03;46.83;;;27.97;;
37855;SDS011;23694;43.274;26.924;2024-03-07T06:45:30;49.47;;;27.70;;
37855;SDS011;23694;43.274;26.924;2024-03-07T06:47:57;43.40;;;27.00;;
37855;SDS011;23694;43.274;26.924;2024-03-07T06:50:23;49.63;;;28.03;;
37855;SDS011;23694;43.274;26.924;2024-03-07T06:52:49;44.63;;;27.50;;
37855;SDS011;23694;43.274;26.924;2024-03-07T06:55:15;42.43;;;26.17;;
37855;SDS011;23694;43.274;26.924;2024-03-07T06:57:43;41.30;;;25.63;;
37855;SDS011;23694;43.274;26.924;2024-03-07T07:00:10;41.80;;;25.40;;
37855;SDS011;23694;43.274;26.924;2024-03-07T07:02:38;47.13;;;27.07;;
37855;SDS011;23694;43.274;26.924;2024-03-07T07:05:07;43.20;;;27.57;;
37855;SDS011;23694;43.274;26.924;2024-03-07T07:10:08;45.63;;;28.23;;
37855;SDS011;23694;43.274;26.924;2024-03-07T07:12:45;46.97;;;26.87;;
37855;SDS011;23694;43.274;26.924;2024-03-07T07:15:12;49.00;;;28.47;;
37855;SDS011;23694;43.274;26.924;2024-03-07T07:17:39;43.53;;;27.13;;
37855;SDS011;23694;43.274;26.924;2024-03-07T07:20:05;52.33;;;28.43;;
37855;SDS011;23694;43.274;26.924;2024-03-07T07:22:39;46.00;;;28.40;;
37855;SDS011;23694;43.274;26.924;2024-03-07T07:25:05;51.57;;;27.80;;
37855;SDS011;23694;43.274;26.924;2024-03-07T07:27:47;45.90;;;27.37;;
37855;SDS011;23694;43.274;26.924;2024-03-07T07:30:15;56.80;;;30.43;;
37855;SDS011;23694;43.274;26.924;2024-03-07T07:32:44;56.07;;;29.87;;
37855;SDS011;23694;43.274;26.924;2024-03-07T07:35:11;46.37;;;27.77;;
37855;SDS011;23694;43.274;26.924;2024-03-07T07:37:38;52.67;;;31.00;;
37855;SDS011;23694;43.274;26.924;2024-03-07T07:40:06;56.60;;;31.13;;
37855;SDS011;23694;43.274;26.924;2024-03-07T07:42:40;46.97;;;29.50;;
37855;SDS011;23694;43.274;26.924;2024-03-07T07:45:10;46.83;;;26.57;;
37855;SDS011;23694;43.274;26.924;2024-03-07T07:47:38;47.57;;;27.60;;
37855;SDS011;23694;43.274;26.924;2024-03-07T07:50:23;44.50;;;26.50;;
37855;SDS011;23694;43.274;26.924;2024-03-07T07:52:50;42.07;;;25.13;;
37855;SDS011;23694;43.274;26.924;2024-03-07T07:55:21;43.00;;;25.70;;
37855;SDS011;23694;43.274;26.924;2024-03-07T07:57:50;47.37;;;26.70;;
37855;SDS011;23694;43.274;26.924;2024-03-07T08:00:18;44.67;;;26.03;;
37855;SDS011;23694;43.274;26.924;2024-03-07T08:02:55;40.30;;;25.27;;
37855;SDS011;23694;43.274;26.924;2024-03-07T08:05:30;44.53;;;26.87;;
37855;SDS011;23694;43.274;26.924;2024-03-07T08:07:59;43.00;;;26.83;;
37855;SDS011;23694;43.274;26.924;2024-03-07T08:10:28;41.70;;;24.43;;
37855;SDS011;23694;43.274;26.924;2024-03-07T08:12:55;41.17;;;26.73;;
37855;SDS011;23694;43.274;26.924;2024-03-07T08:15:26;42.03;;;24.57;;
37855;SDS011;23694;43.274;26.924;2024-03-07T08:17:56;36.63;;;23.17;;
37855;SDS011;23694;43.274;26.924;2024-03-07T08:20:23;36.30;;;23.17;;
37855;SDS011;23694;43.274;26.924;2024-03-07T08:22:51;38.93;;;23.37;;
37855;SDS011;23694;43.274;26.924;2024-03-07T08:25:20;35.43;;;22.33;;
37855;SDS011;23694;43.274;26.924;2024-03-07T08:27:49;35.53;;;22.10;;
37855;SDS011;23694;43.274;26.924;2024-03-07T08:30:17;33.93;;;21.10;;
37855;SDS011;23694;43.274;26.924;2024-03-07T08:35:19;35.93;;;23.13;;
37855;SDS011;23694;43.274;26.924;2024-03-07T08:37:46;32.77;;;19.60;;
37855;SDS011;23694;43.274;26.924;2024-03-07T08:40:20;34.57;;;20.90;;
37855;SDS011;23694;43.274;26.924;2024-03-07T08:42:48;37.57;;;20.67;;
37855;SDS011;23694;43.274;26.924;2024-03-07T08:45:16;33.20;;;20.17;;
37855;SDS011;23694;43.274;26.924;2024-03-07T08:47:48;33.50;;;21.73;;
37855;SDS011;23694;43.274;26.924;2024-03-07T08:50:15;31.60;;;17.97;;
37855;SDS011;23694;43.274;26.924;2024-03-07T08:52:44;32.87;;;19.40;;
37855;SDS011;23694;43.274;26.924;2024-03-07T08:55:14;30.70;;;20.40;;
37855;SDS011;23694;43.274;26.924;2024-03-07T08:57:42;37.40;;;19.97;;
37855;SDS011;23694;43.274;26.924;2024-03-07T09:00:15;30.60;;;18.37;;
37855;SDS011;23694;43.274;26.924;2024-03-07T09:02:50;31.87;;;20.80;;
37855;SDS011;23694;43.274;26.924;2024-03-07T09:05:20;31.70;;;20.13;;
37855;SDS011;23694;43.274;26.924;2024-03-07T09:07:51;40.73;;;20.87;;
37855;SDS011;23694;43.274;26.924;2024-03-07T09:10:18;29.27;;;17.93;;
37855;SDS011;23694;43.274;26.924;2024-03-07T09:12:45;32.67;;;19.83;;
37855;SDS011;23694;43.274;26.924;2024-03-07T09:15:11;34.93;;;20.10;;
37855;SDS011;23694;43.274;26.924;2024-03-07T09:17:38;36.40;;;18.90;;
37855;SDS011;23694;43.274;26.924;2024-03-07T09:20:05;34.10;;;19.77;;
37855;SDS011;23694;43.274;26.924;2024-03-07T09:22:32;32.33;;;20.13;;
37855;SDS011;23694;43.274;26.924;2024-03-07T09:24:58;41.17;;;22.10;;
37855;SDS011;23694;43.274;26.924;2024-03-07T09:27:25;29.93;;;18.23;;
37855;SDS011;23694;43.274;26.924;2024-03-07T09:29:51;31.67;;;20.03;;
37855;SDS011;23694;43.274;26.924;2024-03-07T09:32:17;27.47;;;19.80;;
37855;SDS011;23694;43.274;26.924;2024-03-07T09:34:44;33.77;;;19.10;;
37855;SDS011;23694;43.274;26.924;2024-03-07T09:37:10;28.80;;;18.23;;
37855;SDS011;23694;43.274;26.924;2024-03-07T09:39:36;26.13;;;18.00;;
37855;SDS011;23694;43.274;26.924;2024-03-07T09:42:03;33.17;;;20.00;;
37855;SDS011;23694;43.274;26.924;2024-03-07T09:44:35;36.23;;;18.13;;
37855;SDS011;23694;43.274;26.924;2024-03-07T09:47:05;31.90;;;18.37;;
37855;SDS011;23694;43.274;26.924;2024-03-07T09:49:31;30.70;;;18.07;;
37855;SDS011;23694;43.274;26.924;2024-03-07T09:52:04;29.20;;;17.53;;
37855;SDS011;23694;43.274;26.924;2024-03-07T09:57:00;29.60;;;17.70;;
37855;SDS011;23694;43.274;26.924;2024-03-07T09:59:28;30.20;;;16.53;;
37855;SDS011;23694;43.274;26.924;2024-03-07T10:02:01;32.47;;;17.93;;
37855;SDS011;23694;43.274;26.924;2024-03-07T10:04:42;32.37;;;18.07;;
37855;SDS011;23694;43.274;26.924;2024-03-07T10:07:11;29.73;;;18.57;;
37855;SDS011;23694;43.274;26.924;2024-03-07T10:09:39;29.73;;;17.60;;
37855;SDS011;23694;43.274;26.924;2024-03-07T10:12:09;29.77;;;16.40;;
37855;SDS011;23694;43.274;26.924;2024-03-07T10:14:38;29.60;;;17.27;;
37855;SDS011;23694;43.274;26.924;2024-03-07T10:17:05;29.07;;;16.87;;
37855;SDS011;23694;43.274;26.924;2024-03-07T10:19:31;30.37;;;17.57;;
37855;SDS011;23694;43.274;26.924;2024-03-07T10:21:57;27.73;;;17.10;;
37855;SDS011;23694;43.274;26.924;2024-03-07T10:24:27;33.03;;;18.73;;
37855;SDS011;23694;43.274;26.924;2024-03-07T10:26:53;29.60;;;17.63;;
37855;SDS011;23694;43.274;26.924;2024-03-07T10:29:23;30.27;;;18.87;;
37855;SDS011;23694;43.274;26.924;2024-03-07T10:31:50;26.73;;;17.50;;
37855;SDS011;23694;43.274;26.924;2024-03-07T10:34:16;32.83;;;18.60;;
37855;SDS011;23694;43.274;26.924;2024-03-07T10:36:42;26.17;;;17.70;;
37855;SDS011;23694;43.274;26.924;2024-03-07T10:39:09;32.03;;;19.03;;
37855;SDS011;23694;43.274;26.924;2024-03-07T10:44:18;31.73;;;19.50;;
37855;SDS011;23694;43.274;26.924;2024-03-07T10:46:55;33.90;;;17.83;;
37855;SDS011;23694;43.274;26.924;2024-03-07T10:49:23;26.63;;;17.73;;
37855;SDS011;23694;43.274;26.924;2024-03-07T10:57:52;32.50;;;18.90;;
37855;SDS011;23694;43.274;26.924;2024-03-07T11:00:26;26.70;;;17.00;;
37855;SDS011;23694;43.274;26.924;2024-03-07T11:03:01;27.37;;;17.60;;
37855;SDS011;23694;43.274;26.924;2024-03-07T11:05:33;28.08;;;16.33;;
37855;SDS011;23694;43.274;26.924;2024-03-07T11:08:00;27.30;;;18.17;;
37855;SDS011;23694;43.274;26.924;2024-03-07T11:10:37;30.13;;;18.53;;
37855;SDS011;23694;43.274;26.924;2024-03-07T11:13:04;27.77;;;18.27;;
37855;SDS011;23694;43.274;26.924;2024-03-07T11:15:32;30.17;;;18.20;;
37855;SDS011;23694;43.274;26.924;2024-03-07T11:17:59;33.10;;;18.10;;
37855;SDS011;23694;43.274;26.924;2024-03-07T11:20:26;29.67;;;17.87;;
37855;SDS011;23694;43.274;26.924;2024-03-07T11:23:00;26.63;;;18.37;;
37855;SDS011;23694;43.274;26.924;2024-03-07T11:25:28;27.13;;;17.87;;
37855;SDS011;23694;43.274;26.924;2024-03-07T11:27:58;28.07;;;15.63;;
37855;SDS011;23694;43.274;26.924;2024-03-07T11:30:26;28.35;;;17.58;;
37855;SDS011;23694;43.274;26.924;2024-03-07T11:32:54;31.47;;;17.63;;
37855;SDS011;23694;43.274;26.924;2024-03-07T11:35:21;30.63;;;18.13;;
37855;SDS011;23694;43.274;26.924;2024-03-07T11:37:58;26.23;;;16.50;;
37855;SDS011;23694;43.274;26.924;2024-03-07T11:42:52;25.83;;;17.77;;
37855;SDS011;23694;43.274;26.924;2024-03-07T11:45:22;31.97;;;18.47;;
37855;SDS011;23694;43.274;26.924;2024-03-07T11:47:55;29.60;;;17.43;;
37855;SDS011;23694;43.274;26.924;2024-03-07T11:50:26;30.00;;;18.83;;
37855;SDS011;23694;43.274;26.924;2024-03-07T11:52:53;34.80;;;19.70;;
37855;SDS011;23694;43.274;26.924;2024-03-07T11:55:23;31.67;;;19.43;;
37855;SDS011;23694;43.274;26.924;2024-03-07T11:57:49;31.40;;;18.33;;
37855;SDS011;23694;43.274;26.924;2024-03-07T12:00:19;41.43;;;26.77;;
37855;SDS011;23694;43.274;26.924;2024-03-07T12:02:49;37.23;;;20.60;;
37855;SDS011;23694;43.274;26.924;2024-03-07T12:05:15;33.33;;;19.07;;
37855;SDS011;23694;43.274;26.924;2024-03-07T12:07:43;27.50;;;19.07;;
37855;SDS011;23694;43.274;26.924;2024-03-07T12:10:09;30.27;;;18.60;;
37855;SDS011;23694;43.274;26.924;2024-03-07T12:12:36;31.53;;;19.23;;
37855;SDS011;23694;43.274;26.924;2024-03-07T12:15:08;32.53;;;18.80;;
37855;SDS011;23694;43.274;26.924;2024-03-07T12:17:45;26.90;;;17.80;;
37855;SDS011;23694;43.274;26.924;2024-03-07T12:20:15;33.10;;;19.27;;
37855;SDS011;23694;43.274;26.924;2024-03-07T12:22:56;35.27;;;19.23;;
37855;SDS011;23694;43.274;26.924;2024-03-07T12:25:27;33.05;;;19.40;;
37855;SDS011;23694;43.274;26.924;2024-03-07T12:28:00;29.77;;;19.23;;
37855;SDS011;23694;43.274;26.924;2024-03-07T12:30:53;31.43;;;19.07;;
37855;SDS011;23694;43.274;26.924;2024-03-07T12:33:22;33.97;;;20.93;;
37855;SDS011;23694;43.274;26.924;2024-03-07T12:35:52;33.50;;;20.00;;
37855;SDS011;23694;43.274;26.924;2024-03-07T12:38:26;33.07;;;19.97;;
37855;SDS011;23694;43.274;26.924;2024-03-07T12:41:07;33.67;;;19.70;;
37855;SDS011;23694;43.274;26.924;2024-03-07T12:43:42;34.13;;;20.33;;
37855;SDS011;23694;43.274;26.924;2024-03-07T12:46:12;31.47;;;19.70;;
37855;SDS011;23694;43.274;26.924;2024-03-07T12:48:39;32.23;;;19.53;;
37855;SDS011;23694;43.274;26.924;2024-03-07T12:51:06;30.60;;;17.90;;
37855;SDS011;23694;43.274;26.924;2024-03-07T12:53:32;29.93;;;19.23;;
37855;SDS011;23694;43.274;26.924;2024-03-07T12:56:00;27.93;;;17.97;;
37855;SDS011;23694;43.274;26.924;2024-03-07T12:58:28;33.73;;;18.77;;
37855;SDS011;23694;43.274;26.924;2024-03-07T13:00:55;31.13;;;17.43;;
37855;SDS011;23694;43.274;26.924;2024-03-07T13:03:23;30.27;;;18.50;;
37855;SDS011;23694;43.274;26.924;2024-03-07T13:05:56;27.87;;;16.97;;
37855;SDS011;23694;43.274;26.924;2024-03-07T13:08:26;32.63;;;20.00;;
37855;SDS011;23694;43.274;26.924;2024-03-07T13:10:55;50.03;;;29.23;;
37855;SDS011;23694;43.274;26.924;2024-03-07T13:13:21;35.83;;;20.90;;
37855;SDS011;23694;43.274;26.924;2024-03-07T13:15:47;37.53;;;20.97;;
37855;SDS011;23694;43.274;26.924;2024-03-07T13:18:13;31.30;;;19.63;;
37855;SDS011;23694;43.274;26.924;2024-03-07T13:20:39;39.27;;;24.53;;
37855;SDS011;23694;43.274;26.924;2024-03-07T13:23:09;33.17;;;20.27;;
37855;SDS011;23694;43.274;26.924;2024-03-07T13:25:36;32.87;;;18.63;;
37855;SDS011;23694;43.274;26.924;2024-03-07T13:28:08;32.50;;;21.20;;
37855;SDS011;23694;43.274;26.924;2024-03-07T13:30:39;37.27;;;23.00;;
37855;SDS011;23694;43.274;26.924;2024-03-07T13:33:07;30.17;;;19.87;;
37855;SDS011;23694;43.274;26.924;2024-03-07T13:35:34;35.37;;;20.77;;
37855;SDS011;23694;43.274;26.924;2024-03-07T13:38:01;33.33;;;20.87;;
37855;SDS011;23694;43.274;26.924;2024-03-07T13:40:28;34.53;;;20.53;;
37855;SDS011;23694;43.274;26.924;2024-03-07T13:42:57;33.50;;;20.73;;
37855;SDS011;23694;43.274;26.924;2024-03-07T13:45:26;37.30;;;20.73;;
37855;SDS011;23694;43.274;26.924;2024-03-07T13:47:55;32.93;;;20.13;;
37855;SDS011;23694;43.274;26.924;2024-03-07T13:50:24;36.23;;;21.47;;
37855;SDS011;23694;43.274;26.924;2024-03-07T13:52:54;30.27;;;19.97;;
37855;SDS011;23694;43.274;26.924;2024-03-07T14:30:05;41.23;;;26.60;;
37855;SDS011;23694;43.274;26.924;2024-03-07T14:32:52;45.93;;;28.87;;
37855;SDS011;23694;43.274;26.924;2024-03-07T14:41:20;42.13;;;29.07;;
37855;SDS011;23694;43.274;26.924;2024-03-07T14:44:06;48.93;;;27.93;;
37855;SDS011;23694;43.274;26.924;2024-03-07T14:46:33;48.83;;;32.40;;
37855;SDS011;23694;43.274;26.924;2024-03-07T14:48:59;56.37;;;32.27;;
37855;SDS011;23694;43.274;26.924;2024-03-07T14:51:26;47.50;;;30.60;;
37855;SDS011;23694;43.274;26.924;2024-03-07T14:53:52;45.77;;;30.57;;
37855;SDS011;23694;43.274;26.924;2024-03-07T14:56:18;49.80;;;30.50;;
37855;SDS011;23694;43.274;26.924;2024-03-07T14:58:46;50.47;;;32.07;;
37855;SDS011;23694;43.274;26.924;2024-03-07T15:01:12;46.03;;;29.17;;
37855;SDS011;23694;43.274;26.924;2024-03-07T15:03:42;45.80;;;29.17;;
37855;SDS011;23694;43.274;26.924;2024-03-07T15:06:10;57.47;;;35.50;;
37855;SDS011;23694;43.274;26.924;2024-03-07T15:08:40;48.70;;;31.03;;
37855;SDS011;23694;43.274;26.924;2024-03-07T15:13:42;53.67;;;32.37;;
37855;SDS011;23694;43.274;26.924;2024-03-07T15:16:11;52.50;;;33.37;;
37855;SDS011;23694;43.274;26.924;2024-03-07T15:18:37;49.83;;;30.93;;
37855;SDS011;23694;43.274;26.924;2024-03-07T15:21:03;52.97;;;33.27;;